Time;durP1;ratioP1;P1;durP2;ratioP2;P2;SDS_P1;SDS_P2;PMS_P1;PMS_P2;Temp;Humidity;BMP_temperature;BMP_pressure;BME280_temperature;BME280_humidity;BME280_pressure;Samples;Min_cycle;Max_cycle;Signal;HPM_P1;HPM_P2
2023/09/10 10:08:27;;;;;;;4.10;0.90;;;;;;;29.69;26.71;101519.87;108924;1250;59426;-85
2023/09/10 10:10:55;;;;;;;3.10;0.80;;;;;;;29.56;27.32;101511.02;106576;1254;63161;-86
2023/09/10 10:13:24;;;;;;;2.50;1.00;;;;;;;29.66;27.73;101511.48;106495;1254;60811;-83
2023/09/10 10:15:53;;;;;;;2.10;0.80;;;;;;;29.83;27.23;101509.41;106269;1253;60395;-84
2023/09/10 10:18:21;;;;;;;2.30;0.80;;;;;;;30.00;27.09;101506.91;106795;1254;63624;-85
2023/09/10 10:20:50;;;;;;;1.20;0.70;;;;;;;30.21;26.39;101510.34;106549;1254;60550;-84
2023/09/10 10:23:18;;;;;;;2.90;1.00;;;;;;;30.17;26.27;101511.52;106225;1255;63839;-84
2023/09/10 10:25:53;;;;;;;1.60;0.90;;;;;;;29.97;26.04;101510.28;106302;1254;60462;-84
2023/09/10 10:28:21;;;;;;;3.50;0.90;;;;;;;29.89;26.27;101504.81;106495;1253;60444;-84
2023/09/10 10:30:59;;;;;;;2.20;0.80;;;;;;;29.91;26.22;101502.17;107216;1253;64946;-84
2023/09/10 10:33:27;;;;;;;4.90;0.90;;;;;;;29.99;26.01;101497.73;106182;1260;60418;-83
2023/09/10 10:36:21;;;;;;;1.40;0.60;;;;;;;29.90;25.84;101498.77;106033;1254;67487;-83
2023/09/10 10:38:49;;;;;;;1.20;0.70;;;;;;;30.00;25.41;101495.98;106312;1253;60575;-83
2023/09/10 10:41:17;;;;;;;1.20;0.70;;;;;;;30.25;25.19;101495.09;106169;1260;60530;-84
2023/09/10 10:43:55;;;;;;;2.80;0.70;;;;;;;30.33;25.18;101491.55;107059;1255;67280;-84
2023/09/10 10:46:25;;;;;;;2.60;0.90;;;;;;;30.54;25.02;101489.70;106406;1252;60427;-83
2023/09/10 10:48:52;;;;;;;2.40;1.20;;;;;;;30.64;25.13;101485.66;106326;1257;63733;-83
2023/09/10 10:51:20;;;;;;;6.20;1.50;;;;;;;30.61;24.95;101481.13;106321;1257;60980;-83
2023/09/10 10:53:49;;;;;;;2.00;1.30;;;;;;;30.60;24.85;101481.44;107278;1254;60453;-85
2023/09/10 10:56:16;;;;;;;3.60;0.70;;;;;;;30.52;25.04;101479.77;106198;1254;63659;-83
2023/09/10 10:58:44;;;;;;;1.20;0.90;;;;;;;30.45;24.72;101476.02;106329;1254;60396;-84
2023/09/10 11:01:13;;;;;;;1.30;0.90;;;;;;;30.56;24.89;101472.39;106076;1254;63762;-84
2023/09/10 11:03:42;;;;;;;2.70;1.00;;;;;;;30.71;24.74;101467.49;106413;1253;60499;-84
2023/09/10 11:06:10;;;;;;;4.00;1.40;;;;;;;30.88;24.75;101466.96;106906;1254;60514;-84
2023/09/10 11:08:42;;;;;;;1.50;1.10;;;;;;;30.90;24.54;101465.94;106427;1254;63806;-87
2023/09/10 11:11:10;;;;;;;7.10;2.80;;;;;;;30.82;24.93;101459.43;106409;1257;60450;-84
2023/09/10 11:14:01;;;;;;;2.00;1.00;;;;;;;30.82;24.92;101455.33;106452;1257;62468;-84
2023/09/10 11:16:33;;;;;;;2.60;1.10;;;;;;;30.83;25.06;101454.45;106469;1253;60380;-84
2023/09/10 11:19:02;;;;;;;3.30;1.10;;;;;;;30.99;24.85;101448.97;107265;1253;60523;-83
2023/09/10 11:21:55;;;;;;;1.80;1.10;;;;;;;30.89;24.85;101447.30;106564;1253;63706;-84
2023/09/10 11:24:25;;;;;;;3.00;1.30;;;;;;;31.02;24.46;101447.61;106247;1254;60476;-85
2023/09/10 11:27:22;;;;;;;3.20;1.40;;;;;;;31.38;24.24;101446.31;106350;1253;62480;-84
2023/09/10 11:30:03;;;;;;;4.20;1.20;;;;;;;31.39;24.00;101441.08;106817;1257;60469;-85
2023/09/10 11:32:31;;;;;;;2.10;0.90;;;;;;;31.23;24.09;101436.64;106160;1253;60282;-83
2023/09/10 11:35:18;;;;;;;1.10;0.90;;;;;;;31.40;24.05;101430.67;106276;1253;64961;-86
2023/09/10 11:37:47;;;;;;;5.70;1.30;;;;;;;31.55;24.07;101425.47;106276;1254;60552;-86
2023/09/10 11:40:15;;;;;;;2.30;0.80;;;;;;;31.59;24.22;101428.70;107139;1253;63761;-87
2023/09/10 11:42:43;;;;;;;1.80;1.20;;;;;;;31.54;23.84;101429.25;106313;1253;60444;-86
2023/09/10 11:45:11;;;;;;;2.50;1.10;;;;;;;31.36;24.16;101424.84;106262;1254;60463;-87
2023/09/10 11:47:43;;;;;;;2.30;1.20;;;;;;;31.36;24.43;101422.17;106191;1254;64980;-87
2023/09/10 11:50:12;;;;;;;1.90;1.10;;;;;;;31.59;24.13;101419.27;106294;1254;60533;-88
2023/09/10 11:52:40;;;;;;;3.20;1.10;;;;;;;31.87;23.77;101412.11;106811;1254;62445;-87
2023/09/10 11:55:11;;;;;;;3.30;0.90;;;;;;;32.08;23.48;101410.68;106555;1253;61314;-87
2023/09/10 11:57:38;;;;;;;3.40;1.10;;;;;;;32.07;23.25;101408.11;106341;1254;61282;-86
2023/09/10 12:00:07;;;;;;;2.40;1.30;;;;;;;31.93;23.40;101406.23;106071;1254;68775;-86
2023/09/10 12:02:40;;;;;;;3.50;0.90;;;;;;;32.00;23.57;101407.77;106443;1257;61267;-87
2023/09/10 12:05:08;;;;;;;2.60;1.30;;;;;;;31.98;23.86;101407.94;107035;1253;63748;-87
2023/09/10 12:07:36;;;;;;;5.70;1.20;;;;;;;31.99;23.71;101402.45;106266;1253;61260;-87
2023/09/10 12:10:05;;;;;;;1.70;0.90;;;;;;;31.98;23.48;101402.77;106224;1254;61284;-86
2023/09/10 12:12:33;;;;;;;2.20;0.70;;;;;;;31.96;23.20;101404.13;106122;1254;64596;-87
2023/09/10 12:15:01;;;;;;;3.80;1.50;;;;;;;31.89;23.05;101401.30;106286;1254;61349;-86
2023/09/10 12:17:29;;;;;;;2.50;1.00;;;;;;;31.89;23.35;101395.24;106934;1257;63750;-87
2023/09/10 12:19:57;;;;;;;5.30;1.40;;;;;;;32.03;23.28;101394.27;106350;1256;61317;-87
2023/09/10 12:22:25;;;;;;;4.60;1.10;;;;;;;32.51;22.87;101395.61;106347;1257;61420;-86
2023/09/10 12:24:53;;;;;;;3.20;1.10;;;;;;;32.77;22.68;101390.61;106095;1254;64526;-86
2023/09/10 12:27:21;;;;;;;1.30;0.90;;;;;;;32.79;22.78;101385.50;106375;1253;61371;-86
2023/09/10 12:29:49;;;;;;;4.10;1.20;;;;;;;32.89;22.89;101384.17;106837;1253;62733;-87
2023/09/10 12:32:17;;;;;;;3.50;1.10;;;;;;;32.90;22.78;101382.55;106121;1254;61280;-87
2023/09/10 12:34:45;;;;;;;1.60;1.10;;;;;;;32.92;22.39;101380.92;106362;1253;61340;-86
2023/09/10 12:37:15;;;;;;;1.00;0.90;;;;;;;32.85;22.65;101381.35;106370;1253;64692;-86
2023/09/10 12:39:44;;;;;;;1.80;1.00;;;;;;;32.73;22.98;101380.60;107414;1254;61292;-86
2023/09/10 12:42:12;;;;;;;2.30;0.90;;;;;;;32.57;22.89;101377.98;106283;1254;63645;-86
2023/09/10 12:44:40;;;;;;;1.50;0.90;;;;;;;32.40;22.86;101373.64;106484;1253;61314;-86
2023/09/10 12:47:08;;;;;;;3.40;1.20;;;;;;;32.33;23.04;101376.80;106129;1253;61313;-86
2023/09/10 12:49:41;;;;;;;2.70;1.20;;;;;;;32.26;23.07;101379.64;106780;1253;65723;-86
2023/09/10 12:52:09;;;;;;;2.70;1.30;;;;;;;32.26;23.08;101377.55;106732;1254;203302;-86
2023/09/10 12:54:36;;;;;;;3.00;0.80;;;;;;;32.28;22.94;101375.45;106404;1257;62523;-86
2023/09/10 12:57:04;;;;;;;4.60;1.10;;;;;;;32.23;23.08;101372.06;106357;1254;61301;-86
2023/09/10 12:59:32;;;;;;;1.90;1.00;;;;;;;32.18;23.46;101368.91;106603;1254;61308;-86
2023/09/10 13:02:03;;;;;;;1.50;1.20;;;;;;;32.16;23.32;101367.95;106335;1254;65735;-86
2023/09/10 13:04:32;;;;;;;1.90;1.00;;;;;;;32.21;23.09;101367.61;106495;1253;61103;-86
2023/09/10 13:06:59;;;;;;;2.80;0.90;;;;;;;32.23;23.19;101366.25;106967;1254;63745;-85
2023/09/10 13:09:28;;;;;;;1.70;1.00;;;;;;;32.24;23.17;101370.20;106071;1254;61307;-86
2023/09/10 13:11:56;;;;;;;1.40;0.80;;;;;;;32.30;23.10;101369.14;106081;1254;61467;-85
2023/09/10 13:14:24;;;;;;;2.90;1.00;;;;;;;32.23;23.17;101370.03;106446;1257;65782;-86
2023/09/10 13:16:52;;;;;;;2.30;1.00;;;;;;;32.14;23.33;101366.17;106550;1254;61304;-86
2023/09/10 13:19:19;;;;;;;3.70;1.10;;;;;;;32.03;23.65;101363.45;107466;1254;62442;-86
2023/09/10 13:21:47;;;;;;;1.50;0.90;;;;;;;32.09;23.51;101361.02;106793;1253;61359;-86
2023/09/10 13:24:15;;;;;;;1.00;0.80;;;;;;;32.20;23.36;101361.48;106345;1254;61362;-86
2023/09/10 13:26:43;;;;;;;3.10;1.00;;;;;;;32.26;23.15;101363.26;106278;1254;65741;-86
2023/09/10 13:29:11;;;;;;;4.20;1.10;;;;;;;32.33;23.18;101358.55;106371;1254;61346;-88
2023/09/10 13:31:38;;;;;;;3.40;1.00;;;;;;;32.50;23.25;101358.04;107001;1253;62507;-87
2023/09/10 13:34:07;;;;;;;3.80;1.10;;;;;;;32.60;23.36;101352.18;106281;1254;61902;-86
2023/09/10 13:36:37;;;;;;;1.70;1.20;;;;;;;32.63;23.10;101348.79;106312;1254;61369;-87
2023/09/10 13:39:06;;;;;;;6.40;1.70;;;;;;;32.59;23.28;101353.73;106266;1254;66160;-86
2023/09/10 13:41:34;;;;;;;3.10;1.10;;;;;;;32.60;23.76;101354.78;106910;1253;60387;-87
2023/09/10 13:44:02;;;;;;;3.60;1.00;;;;;;;32.71;23.31;101353.20;106334;1253;63774;-88
2023/09/10 13:46:30;;;;;;;3.00;1.00;;;;;;;32.73;23.06;101351.90;106226;1255;61417;-86
2023/09/10 13:48:58;;;;;;;3.90;1.10;;;;;;;32.81;22.85;101347.24;106447;1254;60057;-87
2023/09/10 13:51:26;;;;;;;2.90;1.10;;;;;;;32.95;22.82;101348.40;106777;1254;65820;-87
2023/09/10 13:53:54;;;;;;;2.70;1.10;;;;;;;32.84;22.89;101349.02;106424;1254;61282;-86
2023/09/10 13:56:30;;;;;;;2.70;1.10;;;;;;;32.85;22.85;101346.59;106508;1254;63765;-87
2023/09/10 13:59:00;;;;;;;3.50;1.10;;;;;;;32.96;22.64;101342.09;106329;1254;61271;-89
2023/09/10 14:01:30;;;;;;;1.20;1.00;;;;;;;32.69;22.85;101340.67;106980;1254;59318;-83
2023/09/10 14:03:58;;;;;;;2.40;0.90;;;;;;;32.25;23.19;101339.83;107171;1253;65841;-84
2023/09/10 14:06:26;;;;;;;2.80;1.10;;;;;;;31.98;23.57;101338.81;107211;1254;61323;-86
2023/09/10 14:08:54;;;;;;;1.50;1.00;;;;;;;31.83;23.58;101339.53;106480;1258;63717;-86
2023/09/10 14:11:22;;;;;;;5.40;1.20;;;;;;;31.69;23.72;101339.30;106490;1253;61311;-86
2023/09/10 14:13:50;;;;;;;4.20;1.20;;;;;;;31.65;23.65;101334.36;106681;1257;61164;-85
2023/09/10 14:16:20;;;;;;;1.80;1.50;;;;;;;31.53;23.81;101332.75;106922;1254;65761;-83
2023/09/10 14:18:49;;;;;;;3.50;1.30;;;;;;;31.48;23.91;101329.92;106244;1254;61368;-86
2023/09/10 14:21:19;;;;;;;1.90;1.30;;;;;;;31.44;24.02;101329.83;106154;1254;63914;-83
2023/09/10 14:23:47;;;;;;;4.30;1.10;;;;;;;31.31;24.38;101329.06;106376;1254;61222;-82
2023/09/10 14:26:15;;;;;;;2.80;1.00;;;;;;;31.12;24.61;101326.45;106522;1253;61362;-82
2023/09/10 14:28:43;;;;;;;3.10;1.20;;;;;;;31.08;24.75;101329.02;107177;1254;65770;-83
2023/09/10 14:31:10;;;;;;;4.30;1.20;;;;;;;30.99;24.83;101327.54;106504;1254;61319;-86
2023/09/10 14:33:38;;;;;;;2.60;1.20;;;;;;;30.51;25.28;101323.70;106262;1254;65878;-83
2023/09/10 14:36:06;;;;;;;1.80;0.90;;;;;;;30.45;25.58;101326.10;106514;1254;61065;-83
2023/09/10 14:38:34;;;;;;;3.20;1.50;;;;;;;30.57;25.45;101319.05;106510;1253;61234;-86
2023/09/10 14:41:02;;;;;;;2.00;1.10;;;;;;;30.31;25.47;101321.56;107209;1254;65771;-83
2023/09/10 14:43:30;;;;;;;6.20;1.10;;;;;;;30.12;25.85;101318.80;106484;1254;61316;-87
2023/09/10 14:45:58;;;;;;;3.10;1.00;;;;;;;30.04;26.13;101316.48;106483;1255;62430;-86
2023/09/10 14:48:26;;;;;;;1.80;1.00;;;;;;;30.02;26.20;101317.19;106347;1257;61327;-87
2023/09/10 14:50:54;;;;;;;4.00;1.30;;;;;;;30.03;26.05;101316.48;106374;1254;61204;-84
2023/09/10 14:53:22;;;;;;;4.30;1.30;;;;;;;29.90;25.94;101316.22;107043;1255;65744;-83
2023/09/10 14:55:50;;;;;;;1.60;1.10;;;;;;;29.77;26.13;101318.78;106071;1261;61344;-83
2023/09/10 14:58:17;;;;;;;1.80;1.20;;;;;;;29.96;25.90;101317.48;106450;1254;63868;-83
2023/09/10 15:00:45;;;;;;;1.90;0.90;;;;;;;30.19;25.53;101315.52;106356;1259;61446;-83
2023/09/10 15:03:13;;;;;;;2.70;1.20;;;;;;;30.16;25.78;101312.20;106357;1254;61362;-82
2023/09/10 15:05:41;;;;;;;1.20;1.00;;;;;;;30.09;26.14;101310.71;107253;1254;64506;-83
2023/09/10 15:08:09;;;;;;;1.60;1.20;;;;;;;30.05;26.08;101310.28;106291;1253;61372;-87
2023/09/10 15:10:36;;;;;;;2.90;1.00;;;;;;;30.03;26.19;101309.70;106432;1254;63717;-87
2023/09/10 15:13:04;;;;;;;5.00;1.50;;;;;;;29.86;26.37;101303.70;106444;1255;61430;-87
2023/09/10 15:15:32;;;;;;;4.10;1.80;;;;;;;29.60;26.76;101308.06;106358;1253;61166;-86
2023/09/10 15:18:00;;;;;;;2.10;1.10;;;;;;;29.44;27.02;101303.02;106147;1254;65836;-87
2023/09/10 15:20:28;;;;;;;3.10;1.10;;;;;;;29.25;27.20;101302.44;107113;1253;61299;-87
2023/09/10 15:22:55;;;;;;;3.00;1.30;;;;;;;29.01;27.51;101301.70;106379;1256;63829;-86
2023/09/10 15:25:23;;;;;;;1.90;1.20;;;;;;;28.88;28.13;101303.16;106295;1253;61254;-87
2023/09/10 15:27:51;;;;;;;1.60;1.00;;;;;;;28.91;28.44;101301.65;106275;1254;61237;-87
2023/09/10 15:30:19;;;;;;;3.20;1.20;;;;;;;29.15;28.46;101304.73;106394;1253;64555;-88
2023/09/10 15:32:46;;;;;;;7.70;1.50;;;;;;;29.09;28.92;101306.39;107318;1253;61212;-88
2023/09/10 15:35:14;;;;;;;3.50;1.40;;;;;;;28.87;29.59;101305.46;106250;1253;63781;-87
2023/09/10 15:37:42;;;;;;;1.60;1.20;;;;;;;28.66;30.34;101305.47;106526;1253;61397;-87
2023/09/10 15:40:11;;;;;;;1.10;0.90;;;;;;;28.48;30.92;101306.52;106612;1254;61455;-83
2023/09/10 15:42:39;;;;;;;3.30;1.10;;;;;;;28.32;31.41;101307.39;106446;1258;66176;-87
2023/09/10 15:45:10;;;;;;;3.70;1.20;;;;;;;28.30;31.76;101308.98;106647;1257;67815;-87
2023/09/10 15:47:38;;;;;;;2.10;0.80;;;;;;;28.21;32.19;101305.64;106390;1257;62546;-88
2023/09/10 15:50:06;;;;;;;1.60;1.00;;;;;;;28.05;32.76;101309.66;106433;1258;61160;-86
2023/09/10 15:52:34;;;;;;;10.30;1.40;;;;;;;27.90;33.31;101307.98;106332;1257;61345;-86
2023/09/10 15:55:05;;;;;;;3.40;1.00;;;;;;;27.83;33.57;101309.96;106678;1253;64527;-80
2023/09/10 15:57:33;;;;;;;10.10;1.40;;;;;;;27.64;33.96;101310.84;106256;1253;61339;-83
2023/09/10 16:00:01;;;;;;;1.20;0.80;;;;;;;27.50;34.41;101308.42;106384;1254;63814;-84
2023/09/10 16:02:38;;;;;;;2.40;1.10;;;;;;;27.38;34.82;101311.02;106159;1253;61288;-84
2023/09/10 16:05:06;;;;;;;;;;;;;;;27.22;35.36;101312.33;106295;1257;61202;-84
2023/09/10 16:07:34;;;;;;;1.60;1.10;;;;;;;26.99;36.04;101309.86;107458;1253;64510;-84
2023/09/10 16:10:03;;;;;;;1.60;0.90;;;;;;;26.80;36.70;101311.25;106266;1258;61316;-84
2023/09/10 16:12:31;;;;;;;3.30;0.90;;;;;;;26.69;37.24;101314.55;106202;1254;62668;-85
2023/09/10 16:14:59;;;;;;;2.50;1.10;;;;;;;26.46;37.83;101319.24;106263;1253;61268;-84
2023/09/10 16:17:27;;;;;;;1.80;1.10;;;;;;;26.19;38.63;101317.84;106254;1254;61202;-84
2023/09/10 16:19:55;;;;;;;1.70;1.00;;;;;;;25.70;39.66;101320.33;107175;1258;65768;-85
2023/09/10 16:22:25;;;;;;;3.20;1.70;;;;;;;25.78;39.97;101322.45;106246;1258;61230;-85
2023/09/10 16:24:52;;;;;;;2.70;1.70;;;;;;;25.80;40.13;101322.50;106156;1254;62446;-85
2023/09/10 16:27:20;;;;;;;9.20;1.70;;;;;;;25.67;40.56;101323.05;106306;1257;61368;-85
2023/09/10 16:29:48;;;;;;;5.70;1.50;;;;;;;25.53;40.97;101324.05;105946;1253;61247;-85
2023/09/10 16:32:17;;;;;;;3.90;1.30;;;;;;;25.41;41.58;101325.83;106954;1252;64517;-85
2023/09/10 16:34:45;;;;;;;3.30;1.20;;;;;;;24.93;42.87;101325.29;106203;1257;67109;-85
2023/09/10 16:37:12;;;;;;;1.90;1.00;;;;;;;24.42;44.69;101328.25;106186;1253;73145;-85
2023/09/10 16:39:40;;;;;;;2.70;1.40;;;;;;;24.65;44.71;101326.95;106239;1259;61427;-85
2023/09/10 16:42:08;;;;;;;6.10;1.70;;;;;;;24.74;43.92;101328.58;106323;1253;62031;-86
2023/09/10 16:44:36;;;;;;;6.20;1.70;;;;;;;24.58;44.56;101329.54;107009;1253;73555;-84
2023/09/10 16:47:03;;;;;;;5.40;2.00;;;;;;;24.41;45.29;101331.16;106227;1253;67110;-85
2023/09/10 16:49:32;;;;;;;5.70;1.60;;;;;;;24.34;45.34;101335.23;106231;1253;72443;-85
2023/09/10 16:52:00;;;;;;;2.30;1.20;;;;;;;24.23;45.49;101337.64;106209;1253;61346;-85
2023/09/10 16:54:27;;;;;;;1.70;1.00;;;;;;;24.10;46.15;101338.34;106179;1256;61339;-85
2023/09/10 16:56:55;;;;;;;4.80;1.40;;;;;;;23.74;47.21;101338.67;106281;1258;73910;-85
2023/09/10 16:59:23;;;;;;;2.30;1.20;;;;;;;23.42;48.28;101345.94;106897;1253;68878;-86
2023/09/10 17:01:51;;;;;;;3.00;1.40;;;;;;;23.16;48.87;101344.63;106284;1257;71442;-85
2023/09/10 17:04:19;;;;;;;2.40;1.00;;;;;;;23.06;49.32;101351.25;106352;1253;59336;-85
2023/09/10 17:06:47;;;;;;;4.50;1.30;;;;;;;23.01;49.47;101351.73;106364;1253;61263;-85
2023/09/10 17:09:16;;;;;;;2.10;1.10;;;;;;;22.88;49.70;101355.42;106208;1254;73222;-85
2023/09/10 17:11:44;;;;;;;3.90;1.40;;;;;;;22.74;49.76;101355.54;106966;1254;67984;-85
2023/09/10 17:14:12;;;;;;;4.80;1.80;;;;;;;22.59;49.47;101357.62;106180;1254;72681;-84
2023/09/10 17:16:40;;;;;;;2.20;1.10;;;;;;;22.44;50.12;101353.92;106243;1254;61321;-84
2023/09/10 17:19:08;;;;;;;4.90;1.40;;;;;;;22.23;51.38;101359.55;106336;1254;61355;-85
2023/09/10 17:21:36;;;;;;;3.20;1.30;;;;;;;22.12;52.37;101357.30;106272;1254;74578;-85
2023/09/10 17:24:04;;;;;;;5.60;1.20;;;;;;;22.05;52.86;101358.48;106626;1258;68469;-85
2023/09/10 17:26:31;;;;;;;7.70;1.60;;;;;;;21.94;53.62;101358.57;106015;1254;75432;-85
2023/09/10 17:29:01;;;;;;;9.90;1.80;;;;;;;21.91;54.24;101358.69;106328;1259;61334;-84
2023/09/10 17:31:29;;;;;;;3.30;1.10;;;;;;;21.86;54.33;101359.04;106242;1254;61211;-84
2023/09/10 17:33:57;;;;;;;2.40;1.50;;;;;;;21.74;54.93;101356.89;106510;1254;73444;-85
2023/09/10 17:36:24;;;;;;;4.70;1.40;;;;;;;21.67;54.60;101358.59;106915;1254;67979;-85
2023/09/10 17:38:52;;;;;;;5.40;1.60;;;;;;;21.57;54.03;101364.33;106122;1254;72732;-84
2023/09/10 17:41:21;;;;;;;10.00;2.00;;;;;;;21.40;53.41;101369.39;106211;1255;61262;-84
2023/09/10 17:43:49;;;;;;;10.90;1.70;;;;;;;21.14;53.86;101376.52;106383;1254;61268;-84
2023/09/10 17:46:17;;;;;;;14.10;5.50;;;;;;;20.94;54.96;101376.27;106930;1253;74896;-84
2023/09/10 17:48:45;;;;;;;55.90;26.60;;;;;;;20.78;57.11;101374.85;106138;1254;68377;-85
2023/09/10 17:51:17;;;;;;;59.10;28.30;;;;;;;20.78;58.72;101375.60;106082;1257;72949;-85
2023/09/10 17:53:47;;;;;;;101.80;42.70;;;;;;;20.76;60.04;101375.07;106290;1254;61291;-85
2023/09/10 17:56:15;;;;;;;68.10;31.90;;;;;;;20.66;61.15;101373.33;106281;1258;61227;-85
2023/09/10 17:58:42;;;;;;;61.90;27.80;;;;;;;20.67;60.90;101375.40;106113;1254;73446;-84
2023/09/10 18:01:10;;;;;;;36.10;16.20;;;;;;;20.63;60.54;101374.57;106417;1254;67111;-83
2023/09/10 18:03:38;;;;;;;40.30;16.90;;;;;;;20.49;61.53;101373.11;106924;1254;73552;-83
2023/09/10 18:06:06;;;;;;;28.50;12.50;;;;;;;20.39;62.76;101372.29;106235;1254;61672;-83
2023/09/10 18:08:34;;;;;;;20.80;10.10;;;;;;;20.38;63.18;101372.59;106159;1254;61443;-84
2023/09/10 18:11:02;;;;;;;20.70;8.40;;;;;;;20.34;63.91;101371.33;106297;1259;76973;-83
2023/09/10 18:13:30;;;;;;;41.80;17.90;;;;;;;20.30;64.32;101373.35;106309;1254;69990;-84
2023/09/10 18:15:58;;;;;;;52.30;22.10;;;;;;;20.23;64.26;101376.37;106786;1258;74607;-85
2023/09/10 18:18:26;;;;;;;33.40;16.10;;;;;;;20.19;64.07;101371.48;106189;1254;61971;-86
2023/09/10 18:20:54;;;;;;;42.50;18.50;;;;;;;20.16;63.90;101374.14;106346;1259;62421;-86
2023/09/10 18:23:22;;;;;;;46.90;20.50;;;;;;;20.16;63.48;101372.00;106162;1254;75176;-86
2023/09/10 18:25:50;;;;;;;34.40;16.20;;;;;;;20.00;64.30;101378.85;106220;1254;67807;-83
2023/09/10 18:28:18;;;;;;;38.10;16.30;;;;;;;19.93;64.75;101378.64;106706;1254;72666;-83
2023/09/10 18:30:46;;;;;;;29.80;14.20;;;;;;;19.93;64.77;101378.77;106535;1254;61451;-83
2023/09/10 18:33:15;;;;;;;41.00;18.10;;;;;;;19.71;65.98;101379.71;105973;1261;61367;-83
2023/09/10 18:35:45;;;;;;;33.30;14.50;;;;;;;19.54;66.36;101376.23;106133;1259;75111;-83
2023/09/10 18:38:14;;;;;;;31.80;14.60;;;;;;;19.40;67.44;101381.05;106342;1258;67584;-85
2023/09/10 18:40:43;;;;;;;28.40;13.70;;;;;;;19.45;66.64;101378.08;106303;1254;74305;-86
2023/09/10 18:43:11;;;;;;;27.80;12.80;;;;;;;19.43;66.10;101374.09;107260;1260;61198;-85
2023/09/10 18:45:38;;;;;;;28.20;12.10;;;;;;;19.39;65.55;101373.32;106141;1252;61281;-85
2023/09/10 18:48:06;;;;;;;22.00;8.80;;;;;;;19.43;63.91;101373.98;106304;1254;73424;-84
2023/09/10 18:50:34;;;;;;;12.70;6.70;;;;;;;19.27;64.54;101372.45;106330;1254;68747;-83
2023/09/10 18:53:02;;;;;;;14.30;6.10;;;;;;;19.18;65.43;101370.01;106248;1254;74492;-84
2023/09/10 18:55:30;;;;;;;12.50;5.80;;;;;;;18.98;67.15;101374.28;106793;1252;61233;-84
2023/09/10 18:57:58;;;;;;;10.90;5.80;;;;;;;18.97;67.69;101372.60;106343;1257;61957;-84
2023/09/10 19:00:25;;;;;;;14.70;5.20;;;;;;;18.93;68.34;101376.28;106208;1257;75050;-84
2023/09/10 19:02:53;;;;;;;13.90;5.10;;;;;;;18.96;68.53;101377.23;106055;1260;68432;-84
2023/09/10 19:05:21;;;;;;;10.50;4.20;;;;;;;18.92;69.28;101378.85;106256;1253;74883;-84
2023/09/10 19:07:49;;;;;;;11.80;5.30;;;;;;;18.85;70.18;101376.17;107122;1259;61182;-85
2023/09/10 19:10:18;;;;;;;8.50;4.20;;;;;;;18.77;70.70;101375.20;106256;1254;62880;-84
2023/09/10 19:12:46;;;;;;;8.90;4.50;;;;;;;18.67;71.73;101376.13;106397;1254;75874;-85
2023/09/10 19:15:14;;;;;;;12.50;5.50;;;;;;;18.58;72.64;101376.50;106421;1257;68673;-83
2023/09/10 19:17:42;;;;;;;16.50;6.10;;;;;;;18.56;72.55;101372.51;106216;1258;71440;-86
2023/09/10 19:20:10;;;;;;;14.80;5.10;;;;;;;18.49;72.93;101373.22;106888;1254;61235;-84
2023/09/10 19:22:38;;;;;;;12.10;3.90;;;;;;;18.54;72.78;101371.90;106314;1259;61788;-85
2023/09/10 19:25:06;;;;;;;11.00;4.60;;;;;;;18.49;73.17;101373.37;106330;1254;74756;-85
2023/09/10 19:27:34;;;;;;;9.90;4.90;;;;;;;18.47;72.59;101376.95;106237;1254;68707;-84
2023/09/10 19:30:02;;;;;;;8.20;4.00;;;;;;;18.64;70.38;101377.80;106487;1257;72648;-84
2023/09/10 19:32:30;;;;;;;9.50;3.50;;;;;;;18.50;70.68;101381.91;107415;1253;61304;-84
2023/09/10 19:34:59;;;;;;;6.60;3.10;;;;;;;18.21;73.10;101383.66;106382;1257;61326;-83
2023/09/10 19:37:26;;;;;;;6.10;3.40;;;;;;;18.46;71.59;101380.30;106189;1258;73449;-83
2023/09/10 19:39:59;;;;;;;6.70;2.90;;;;;;;18.54;70.92;101382.67;106469;1254;67125;-83
2023/09/10 19:42:29;;;;;;;7.40;3.80;;;;;;;18.42;71.47;101380.67;106281;1257;72928;-84
2023/09/10 19:44:58;;;;;;;5.80;3.10;;;;;;;18.42;72.21;101380.23;107429;1254;61260;-85
2023/09/10 19:47:26;;;;;;;7.10;3.10;;;;;;;18.32;73.45;101383.04;106187;1258;61253;-84
2023/09/10 19:49:54;;;;;;;9.00;3.40;;;;;;;18.51;73.29;101381.23;106326;1259;74769;-85
2023/09/10 19:52:22;;;;;;;8.80;4.00;;;;;;;18.52;73.76;101382.48;106276;1258;67343;-86
2023/09/10 19:54:49;;;;;;;9.80;4.10;;;;;;;18.33;75.82;101388.16;106259;1254;72424;-85
2023/09/10 19:57:35;;;;;;;7.40;3.90;;;;;;;18.43;75.97;101380.04;107414;1254;61207;-86
2023/09/10 20:00:04;;;;;;;7.30;3.30;;;;;;;18.45;76.06;101379.36;106316;1257;61096;-85
2023/09/10 20:02:40;;;;;;;4.30;2.70;;;;;;;18.40;76.44;101376.71;106303;1259;74685;-85
2023/09/10 20:05:09;;;;;;;6.40;3.10;;;;;;;18.50;75.38;101375.52;106194;1257;67428;-86
2023/09/10 20:07:40;;;;;;;4.40;2.70;;;;;;;18.41;75.57;101377.47;106380;1254;73247;-83
2023/09/10 20:10:09;;;;;;;5.70;2.50;;;;;;;18.42;75.15;101376.52;106964;1257;61233;-85
2023/09/10 20:12:37;;;;;;;5.00;2.90;;;;;;;18.38;75.72;101373.17;106267;1254;61365;-85
2023/09/10 20:15:05;;;;;;;6.20;2.80;;;;;;;18.26;76.86;101372.53;106175;1259;74953;-85
2023/09/10 20:17:33;;;;;;;5.40;3.10;;;;;;;18.31;76.58;101372.21;106343;1254;67090;-85
2023/09/10 20:20:01;;;;;;;4.90;2.40;;;;;;;18.28;76.77;101367.57;106994;1254;72701;-85
2023/09/10 20:22:29;;;;;;;6.80;3.40;;;;;;;18.24;77.01;101363.40;106252;1255;61516;-82
2023/09/10 20:24:56;;;;;;;6.20;3.30;;;;;;;18.33;75.48;101363.88;106216;1254;61445;-85
2023/09/10 20:27:24;;;;;;;7.00;2.90;;;;;;;18.31;74.63;101363.54;106216;1254;73233;-82
2023/09/10 20:29:52;;;;;;;5.60;2.60;;;;;;;18.23;74.45;101366.14;106249;1255;67473;-85
2023/09/10 20:32:20;;;;;;;4.90;2.70;;;;;;;18.21;74.23;101360.98;107152;1259;71410;-85
2023/09/10 20:34:48;;;;;;;3.60;2.10;;;;;;;18.14;74.46;101361.96;106207;1254;61247;-82
2023/09/10 20:37:17;;;;;;;4.40;2.50;;;;;;;18.04;75.65;101361.55;106390;1259;61699;-85
2023/09/10 20:39:45;;;;;;;3.20;1.90;;;;;;;18.03;76.30;101357.45;106344;1254;74644;-82
2023/09/10 20:42:13;;;;;;;4.60;2.90;;;;;;;17.98;77.09;101356.02;106361;1254;67370;-85
2023/09/10 20:44:40;;;;;;;3.60;2.00;;;;;;;17.90;77.36;101353.24;106916;1253;72667;-83
2023/09/10 20:47:08;;;;;;;5.30;2.30;;;;;;;17.89;77.43;101352.22;106802;1254;61305;-85
2023/09/10 20:49:36;;;;;;;6.60;2.50;;;;;;;17.96;76.97;101352.56;106338;1254;61295;-84
2023/09/10 20:52:04;;;;;;;4.80;1.80;;;;;;;17.91;77.50;101350.13;106250;1254;73473;-85
2023/09/10 20:54:32;;;;;;;6.80;2.10;;;;;;;17.91;77.83;101353.00;106277;1254;67467;-84
2023/09/10 20:57:00;;;;;;;3.70;2.10;;;;;;;17.92;77.99;101352.66;106511;1257;71853;-84
2023/09/10 20:59:28;;;;;;;4.40;2.20;;;;;;;18.02;77.48;101351.41;107252;1257;60372;-84
2023/09/10 21:01:56;;;;;;;4.60;2.60;;;;;;;18.15;76.65;101349.05;106438;1254;61286;-84
2023/09/10 21:04:27;;;;;;;4.50;2.50;;;;;;;18.14;76.50;101352.39;106271;1259;74642;-84
2023/09/10 21:06:55;;;;;;;4.50;2.80;;;;;;;17.99;77.60;101351.69;106286;1254;68456;-84
2023/09/10 21:09:23;;;;;;;4.40;2.30;;;;;;;17.89;78.16;101349.94;106174;1254;72753;-84
2023/09/10 21:11:51;;;;;;;5.00;2.60;;;;;;;17.72;78.94;101352.95;107943;1257;61231;-82
2023/09/10 21:14:41;;;;;;;4.70;2.70;;;;;;;17.71;78.95;101354.14;106216;1255;61262;-84
2023/09/10 21:17:10;;;;;;;5.80;3.00;;;;;;;17.67;78.87;101355.55;106379;1254;74690;-84
2023/09/10 21:19:37;;;;;;;5.50;2.80;;;;;;;17.63;78.91;101350.47;106358;1260;67100;-82
2023/09/10 21:22:05;;;;;;;5.50;2.60;;;;;;;17.63;79.12;101352.30;106385;1254;70443;-82
2023/09/10 21:24:33;;;;;;;5.50;2.80;;;;;;;17.66;79.25;101355.02;107346;1257;61224;-82
2023/09/10 21:27:02;;;;;;;5.00;3.20;;;;;;;17.69;79.18;101353.30;106339;1257;61275;-83
2023/09/10 21:29:29;;;;;;;5.80;2.90;;;;;;;17.73;78.94;101355.77;106323;1255;74600;-84